Time;durP1;ratioP1;P1;durP2;ratioP2;P2;SDS_P1;SDS_P2;PMS_P1;PMS_P2;Temp;Humidity;BMP_temperature;BMP_pressure;BME280_temperature;BME280_humidity;BME280_pressure;Samples;Min_cycle;Max_cycle;Signal;HPM_P1;HPM_P2
2023/06/15 00:00:17;;;;;;;8.50;3.15;;;16.80;75.40;;;;;;5114827;28;20040;-76
2023/06/15 00:02:43;;;;;;;7.43;3.47;;;16.70;75.30;;;;;;5115245;28;20046;-76
2023/06/15 00:05:09;;;;;;;5.25;3.30;;;16.80;75.30;;;;;;5115405;28;20036;-76
2023/06/15 00:07:35;;;;;;;4.47;3.50;;;16.70;75.30;;;;;;5114722;28;20039;-76
2023/06/15 00:10:01;;;;;;;5.93;3.60;;;16.70;75.30;;;;;;5114820;28;20415;-75
2023/06/15 00:12:26;;;;;;;3.95;3.45;;;16.70;75.30;;;;;;5081182;28;20036;-76
2023/06/15 00:14:52;;;;;;;6.65;3.97;;;16.70;75.50;;;;;;5097843;28;20035;-76
2023/06/15 00:17:18;;;;;;;5.75;3.45;;;16.70;75.40;;;;;;5097916;28;20051;-75
2023/06/15 00:19:46;;;;;;;7.70;4.32;;;16.70;75.50;;;;;;5097804;28;20035;-77
2023/06/15 00:22:15;;;;;;;10.13;3.50;;;16.70;75.50;;;;;;5114562;28;20055;-77
2023/06/15 00:24:43;;;;;;;6.88;4.07;;;16.60;75.70;;;;;;5097971;28;20066;-77
2023/06/15 00:27:10;;;;;;;4.80;3.72;;;16.60;76.00;;;;;;5114359;28;20133;-76
2023/06/15 00:29:37;;;;;;;8.15;3.50;;;16.60;76.10;;;;;;5097608;28;20111;-76
2023/06/15 00:32:04;;;;;;;7.82;3.97;;;16.60;76.30;;;;;;5114864;28;20165;-76
2023/06/15 00:34:30;;;;;;;6.65;4.30;;;16.60;76.20;;;;;;5114270;28;20043;-76
2023/06/15 00:36:56;;;;;;;5.43;3.47;;;16.50;76.30;;;;;;5097626;28;20075;-76
2023/06/15 00:39:21;;;;;;;7.82;5.00;;;16.50;76.50;;;;;;5097153;28;20482;-76
2023/06/15 00:41:47;;;;;;;4.95;3.70;;;16.50;76.50;;;;;;5080270;28;20044;-76
2023/06/15 00:44:13;;;;;;;8.80;4.03;;;16.50;76.50;;;;;;5113963;28;20032;-76
2023/06/15 00:46:39;;;;;;;8.38;4.63;;;16.50;76.50;;;;;;5097190;28;20031;-76
2023/06/15 00:49:06;;;;;;;4.03;3.60;;;16.50;76.50;;;;;;5097119;28;20058;-76
2023/06/15 00:51:34;;;;;;;6.03;3.97;;;16.50;76.60;;;;;;5097080;28;20035;-76
2023/06/15 00:54:03;;;;;;;6.65;3.72;;;16.40;76.80;;;;;;5097378;28;20047;-76
2023/06/15 00:56:29;;;;;;;6.50;4.30;;;16.40;76.80;;;;;;5080117;28;20043;-76
2023/06/15 00:58:56;;;;;;;6.18;4.20;;;16.40;76.80;;;;;;5096730;28;20072;-76
2023/06/15 01:01:22;;;;;;;10.13;4.53;;;16.40;76.70;;;;;;5113642;28;20048;-76
2023/06/15 01:03:49;;;;;;;4.70;4.20;;;16.30;76.70;;;;;;5113661;28;20032;-76
2023/06/15 01:06:16;;;;;;;5.40;4.32;;;16.30;76.90;;;;;;5113889;28;20040;-76
2023/06/15 01:08:44;;;;;;;6.90;4.32;;;16.30;76.90;;;;;;5113343;28;20074;-76
2023/06/15 01:11:10;;;;;;;7.57;4.07;;;16.20;76.90;;;;;;5096722;28;20039;-76
2023/06/15 01:13:36;;;;;;;7.93;4.65;;;16.20;76.90;;;;;;5096709;28;20054;-76
2023/06/15 01:16:07;;;;;;;4.97;4.07;;;16.20;77.20;;;;;;5113521;28;20407;-75
2023/06/15 01:18:34;;;;;;;7.00;4.10;;;16.20;77.10;;;;;;5112805;28;20171;-76
2023/06/15 01:21:04;;;;;;;7.45;4.30;;;16.20;77.10;;;;;;5096585;28;20035;-76
2023/06/15 01:24:17;;;;;;;5.30;3.90;;;16.20;77.20;;;;;;5113241;27;20052;-76
2023/06/15 01:26:46;;;;;;;6.50;4.22;;;16.20;77.40;;;;;;5096413;28;20036;-76
2023/06/15 01:29:14;;;;;;;6.10;4.40;;;16.20;77.30;;;;;;5113211;28;20043;-76
2023/06/15 01:31:40;;;;;;;13.35;4.30;;;16.20;77.20;;;;;;5096174;28;20043;-76
2023/06/15 01:34:06;;;;;;;5.82;3.92;;;16.20;77.00;;;;;;5113160;28;20044;-76
2023/06/15 01:36:32;;;;;;;7.13;4.72;;;16.10;77.00;;;;;;5113407;28;20049;-76
2023/06/15 01:38:58;;;;;;;8.82;4.38;;;16.20;76.90;;;;;;5113025;28;20035;-76
2023/06/15 01:41:26;;;;;;;5.80;4.60;;;16.10;77.00;;;;;;5112935;28;20086;-76
2023/06/15 01:43:53;;;;;;;13.95;5.60;;;16.00;76.90;;;;;;5113308;28;20115;-76
2023/06/15 01:46:21;;;;;;;7.13;4.78;;;16.00;77.10;;;;;;5096219;28;20043;-76
2023/06/15 01:48:46;;;;;;;5.68;5.07;;;16.00;77.10;;;;;;5096165;28;20035;-76
2023/06/15 01:51:12;;;;;;;7.82;4.85;;;16.00;77.00;;;;;;5112932;28;20381;-76
2023/06/15 01:53:38;;;;;;;5.93;4.50;;;16.00;77.20;;;;;;5095836;28;20140;-76
2023/06/15 01:56:04;;;;;;;8.75;4.43;;;16.00;77.10;;;;;;5096299;28;20469;-76
2023/06/15 01:58:30;;;;;;;7.03;4.93;;;16.00;77.10;;;;;;5112659;28;20049;-76
2023/06/15 02:00:55;;;;;;;7.20;4.38;;;15.90;77.40;;;;;;5095882;28;20048;-76
2023/06/15 02:03:21;;;;;;;9.30;4.95;;;15.90;77.40;;;;;;5095717;28;20039;-76
2023/06/15 02:05:47;;;;;;;9.93;4.93;;;15.90;77.40;;;;;;5095633;28;20067;-76
2023/06/15 02:08:12;;;;;;;6.13;4.38;;;15.80;77.40;;;;;;5095756;28;20039;-76
2023/06/15 02:10:39;;;;;;;7.72;4.28;;;15.80;77.60;;;;;;5095704;28;20047;-76
2023/06/15 02:13:11;;;;;;;7.95;4.43;;;15.80;77.60;;;;;;5112935;28;20452;-76
2023/06/15 02:15:37;;;;;;;9.00;4.72;;;15.70;77.70;;;;;;5112962;28;20391;-76
2023/06/15 02:18:11;;;;;;;7.75;5.00;;;15.70;77.70;;;;;;5112798;28;20041;-76
2023/06/15 02:20:39;;;;;;;7.38;4.88;;;15.70;77.90;;;;;;5096146;28;20040;-76
2023/06/15 02:23:05;;;;;;;8.27;4.88;;;15.70;78.00;;;;;;5078890;28;20059;-76
2023/06/15 02:25:31;;;;;;;7.22;4.40;;;15.60;78.00;;;;;;5112531;28;20548;-75
2023/06/15 02:27:56;;;;;;;5.80;4.85;;;15.60;78.10;;;;;;5112476;28;20043;-76
2023/06/15 02:30:25;;;;;;;7.80;5.63;;;15.60;78.10;;;;;;5098006;28;20042;-75
2023/06/15 02:32:52;;;;;;;6.78;5.10;;;15.60;78.10;;;;;;5116402;28;20046;-76
2023/06/15 02:35:18;;;;;;;8.02;5.10;;;15.60;78.20;;;;;;5116672;28;20039;-76
2023/06/15 02:37:44;;;;;;;5.70;4.65;;;15.50;78.20;;;;;;5116532;28;20055;-75
2023/06/15 02:40:11;;;;;;;9.38;5.32;;;15.50;78.50;;;;;;5099414;28;20383;-76
2023/06/15 02:42:37;;;;;;;5.93;4.80;;;15.60;78.40;;;;;;5116155;28;20057;-76
2023/06/15 02:45:06;;;;;;;8.10;4.78;;;15.60;78.30;;;;;;5116381;28;20043;-76
2023/06/15 02:47:33;;;;;;;11.02;5.32;;;15.60;78.40;;;;;;5082957;28;20122;-75
2023/06/15 02:49:59;;;;;;;7.80;4.80;;;15.60;78.60;;;;;;5116490;28;20071;-76
2023/06/15 02:52:26;;;;;;;8.60;5.07;;;15.60;78.60;;;;;;5116167;28;20048;-76
2023/06/15 02:54:53;;;;;;;9.32;5.13;;;15.60;78.50;;;;;;5099194;28;20044;-76
2023/06/15 02:57:18;;;;;;;6.03;5.22;;;15.50;78.70;;;;;;5116110;27;20044;-76
2023/06/15 02:59:44;;;;;;;8.93;4.97;;;15.50;78.80;;;;;;5098938;28;20069;-75
2023/06/15 03:02:10;;;;;;;7.85;5.60;;;15.50;78.90;;;;;;5115198;28;20503;-76
2023/06/15 03:04:47;;;;;;;8.73;4.45;;;15.50;78.80;;;;;;5098512;28;20044;-76
2023/06/15 03:07:20;;;;;;;7.03;5.75;;;15.50;78.90;;;;;;5098597;28;20071;-76
2023/06/15 03:09:50;;;;;;;10.00;5.53;;;15.50;79.00;;;;;;5115133;28;20122;-76
2023/06/15 03:12:17;;;;;;;6.90;5.30;;;15.50;78.90;;;;;;5098471;28;20288;-76
2023/06/15 03:14:50;;;;;;;8.70;5.00;;;15.50;79.00;;;;;;5098705;28;20043;-77
2023/06/15 03:17:17;;;;;;;9.50;6.10;;;15.40;79.20;;;;;;5100053;28;20052;-76
2023/06/15 03:19:46;;;;;;;8.60;5.47;;;15.40;79.10;;;;;;5099158;28;20365;-76
2023/06/15 03:22:12;;;;;;;8.75;5.70;;;15.40;79.20;;;;;;5115278;28;20052;-76
2023/06/15 03:24:39;;;;;;;7.75;5.45;;;15.50;79.40;;;;;;5115327;28;20543;-76
2023/06/15 03:27:06;;;;;;;6.18;5.32;;;15.40;79.60;;;;;;5098704;28;20043;-76
2023/06/15 03:29:36;;;;;;;9.85;5.45;;;15.40;79.70;;;;;;5098048;28;20043;-76
2023/06/15 03:32:11;;;;;;;10.05;5.80;;;15.30;79.90;;;;;;5098125;28;20043;-75
2023/06/15 03:34:37;;;;;;;7.20;5.47;;;15.30;79.90;;;;;;5115479;28;20047;-75
2023/06/15 03:37:03;;;;;;;8.88;5.57;;;15.30;80.10;;;;;;5115281;28;20035;-75
2023/06/15 03:39:29;;;;;;;7.68;6.38;;;15.30;80.30;;;;;;5098209;28;20417;-75
2023/06/15 03:41:55;;;;;;;13.40;6.25;;;15.30;80.20;;;;;;5114176;28;20039;-75
2023/06/15 03:44:20;;;;;;;9.63;6.05;;;15.30;80.30;;;;;;5097928;28;20036;-75
2023/06/15 03:46:47;;;;;;;7.47;5.72;;;15.20;80.40;;;;;;5114974;28;20039;-76
2023/06/15 03:49:13;;;;;;;11.18;5.72;;;15.20;80.70;;;;;;5098141;28;20039;-75
2023/06/15 03:51:39;;;;;;;10.45;5.40;;;15.20;81.00;;;;;;5097974;28;20142;-75
2023/06/15 03:54:05;;;;;;;9.13;6.10;;;15.30;81.20;;;;;;5097889;28;20092;-75
2023/06/15 03:56:31;;;;;;;10.18;6.70;;;15.30;81.10;;;;;;5098183;28;20035;-75
2023/06/15 03:58:57;;;;;;;9.50;6.15;;;15.30;81.30;;;;;;5114895;28;20054;-75
2023/06/15 04:01:25;;;;;;;9.38;6.22;;;15.30;81.30;;;;;;5114870;28;20035;-75
2023/06/15 04:03:52;;;;;;;8.07;6.25;;;15.30;81.50;;;;;;5097767;28;20036;-75
2023/06/15 04:06:21;;;;;;;10.00;5.88;;;15.30;81.60;;;;;;5114507;28;20041;-76
2023/06/15 04:08:47;;;;;;;10.10;6.15;;;15.40;81.40;;;;;;5114606;28;20036;-76
2023/06/15 04:11:14;;;;;;;7.15;6.45;;;15.30;81.50;;;;;;5097425;28;20047;-76
2023/06/15 04:13:40;;;;;;;9.10;6.25;;;15.40;81.60;;;;;;5080851;28;20535;-75
2023/06/15 04:16:06;;;;;;;12.52;6.40;;;15.40;81.60;;;;;;5114312;28;20131;-76
2023/06/15 04:18:32;;;;;;;9.55;6.57;;;15.40;81.50;;;;;;5097523;28;20399;-77
2023/06/15 04:20:57;;;;;;;10.07;6.90;;;15.40;81.60;;;;;;5097589;28;20491;-76
2023/06/15 04:23:23;;;;;;;11.90;6.55;;;15.40;81.50;;;;;;5114173;28;20044;-76
2023/06/15 04:25:48;;;;;;;9.23;6.43;;;15.50;81.60;;;;;;5097489;28;20071;-76
2023/06/15 04:28:16;;;;;;;8.32;7.13;;;15.50;81.80;;;;;;5097522;28;20081;-76
2023/06/15 04:30:44;;;;;;;8.10;6.05;;;15.50;81.90;;;;;;5114229;28;20568;-77
2023/06/15 04:33:13;;;;;;;8.50;6.72;;;15.50;82.00;;;;;;5114387;28;20046;-77
2023/06/15 04:35:45;;;;;;;10.60;6.10;;;15.50;82.00;;;;;;5097654;28;20078;-76
2023/06/15 04:38:14;;;;;;;8.73;6.30;;;15.60;81.90;;;;;;5097375;28;20153;-76
2023/06/15 04:40:45;;;;;;;10.25;6.50;;;15.60;81.80;;;;;;5114210;28;20085;-76
2023/06/15 04:43:11;;;;;;;7.25;5.32;;;15.70;82.00;;;;;;5113939;28;20039;-77
2023/06/15 04:45:36;;;;;;;8.68;6.38;;;15.70;82.00;;;;;;5097037;28;20035;-78
2023/06/15 04:48:02;;;;;;;7.88;5.65;;;15.80;81.70;;;;;;5097541;28;20028;-76
2023/06/15 04:50:29;;;;;;;6.90;5.22;;;15.80;81.80;;;;;;5114118;28;20032;-77
2023/06/15 04:52:56;;;;;;;8.57;5.40;;;15.90;81.80;;;;;;5079815;28;20419;-75
2023/06/15 04:55:22;;;;;;;7.43;6.25;;;16.00;81.60;;;;;;5096751;28;20039;-75
2023/06/15 04:57:47;;;;;;;8.73;6.28;;;16.10;81.50;;;;;;5096480;28;20031;-75
2023/06/15 05:00:13;;;;;;;15.70;7.53;;;16.10;81.50;;;;;;5096297;28;20042;-75
2023/06/15 05:02:39;;;;;;;7.90;5.78;;;16.20;81.50;;;;;;5079720;28;20042;-76
2023/06/15 05:05:05;;;;;;;9.02;6.32;;;16.20;81.50;;;;;;5113521;28;20062;-75
2023/06/15 05:07:31;;;;;;;11.23;6.85;;;16.30;81.60;;;;;;5113470;28;20039;-75
2023/06/15 05:09:57;;;;;;;7.45;5.82;;;16.40;81.20;;;;;;5079533;28;20036;-76
2023/06/15 05:12:22;;;;;;;8.57;6.28;;;16.40;81.20;;;;;;5113323;28;20039;-75
2023/06/15 05:14:48;;;;;;;6.80;5.40;;;16.50;81.30;;;;;;5113288;28;20051;-75
2023/06/15 05:17:14;;;;;;;8.88;6.28;;;16.60;81.20;;;;;;5113175;28;20047;-75
2023/06/15 05:19:40;;;;;;;7.07;6.03;;;16.60;81.00;;;;;;5113012;28;20130;-75
2023/06/15 05:22:06;;;;;;;7.72;5.22;;;16.70;80.90;;;;;;5096169;28;20120;-75
2023/06/15 05:24:32;;;;;;;10.20;6.13;;;16.80;80.90;;;;;;5113142;28;20515;-75
2023/06/15 05:26:58;;;;;;;13.57;7.20;;;16.80;80.60;;;;;;5113125;28;20044;-76
2023/06/15 05:29:24;;;;;;;7.80;6.35;;;16.90;80.70;;;;;;5113123;28;20035;-76
2023/06/15 05:31:49;;;;;;;9.18;5.88;;;17.00;80.80;;;;;;5113278;28;20131;-76
2023/06/15 05:34:15;;;;;;;8.38;4.88;;;17.00;80.80;;;;;;5096282;28;20035;-75
2023/06/15 05:36:41;;;;;;;8.48;5.30;;;17.10;80.60;;;;;;5079108;28;20501;-76
2023/06/15 05:39:07;;;;;;;10.73;5.75;;;17.30;80.30;;;;;;5112907;28;20483;-75
2023/06/15 05:41:33;;;;;;;9.15;5.55;;;17.40;79.70;;;;;;5112856;28;20031;-75
2023/06/15 05:44:00;;;;;;;8.60;6.15;;;17.40;79.40;;;;;;5112754;28;20479;-76
2023/06/15 05:46:25;;;;;;;8.40;5.32;;;17.50;79.20;;;;;;5112963;28;20070;-77
2023/06/15 05:48:51;;;;;;;9.48;5.82;;;17.60;79.10;;;;;;5112613;28;20475;-76
2023/06/15 05:51:17;;;;;;;6.68;4.88;;;17.70;78.90;;;;;;5096225;28;20414;-77
2023/06/15 05:53:42;;;;;;;7.03;5.38;;;17.70;78.70;;;;;;5113201;28;20491;-78
2023/06/15 05:56:08;;;;;;;6.57;5.55;;;17.80;78.60;;;;;;5095992;28;20035;-77
2023/06/15 05:58:34;;;;;;;7.22;5.13;;;17.80;78.40;;;;;;5112784;28;20544;-76
2023/06/15 06:01:00;;;;;;;9.00;5.30;;;17.90;78.50;;;;;;5095869;28;20043;-77
2023/06/15 06:03:26;;;;;;;7.82;5.88;;;17.90;78.50;;;;;;5101699;27;20035;-76
2023/06/15 06:05:52;;;;;;;8.38;5.13;;;18.00;78.50;;;;;;5116226;28;20043;-75
2023/06/15 06:08:18;;;;;;;11.82;5.65;;;18.10;78.40;;;;;;5133218;27;20038;-76
2023/06/15 06:10:44;;;;;;;10.98;6.60;;;18.20;78.30;;;;;;5115861;27;20051;-76
2023/06/15 06:13:10;;;;;;;9.05;5.78;;;18.30;78.40;;;;;;5133107;27;20051;-76
2023/06/15 06:15:36;;;;;;;8.13;4.85;;;18.30;78.40;;;;;;5133058;27;20095;-76
2023/06/15 06:18:04;;;;;;;9.05;5.15;;;18.40;78.40;;;;;;5116059;28;20039;-76
2023/06/15 06:20:31;;;;;;;5.78;4.40;;;18.50;78.10;;;;;;5133133;28;20376;-76
2023/06/15 06:22:57;;;;;;;8.18;4.70;;;18.50;78.20;;;;;;5132855;28;20055;-77
2023/06/15 06:25:22;;;;;;;7.78;5.20;;;18.70;77.80;;;;;;5113582;28;20475;-76
2023/06/15 06:27:48;;;;;;;7.32;4.78;;;18.70;77.70;;;;;;5133036;28;20096;-76
2023/06/15 06:30:14;;;;;;;7.72;4.13;;;18.90;77.50;;;;;;5116055;28;20027;-75
2023/06/15 06:32:40;;;;;;;7.10;4.28;;;18.90;77.10;;;;;;5099147;28;20603;-76
2023/06/15 06:35:06;;;;;;;5.40;4.50;;;18.90;76.30;;;;;;5133056;28;20035;-76
2023/06/15 06:37:32;;;;;;;11.20;4.63;;;19.00;76.00;;;;;;5116059;28;20126;-76
2023/06/15 06:39:58;;;;;;;7.35;4.45;;;19.00;75.70;;;;;;5115409;28;20566;-76
2023/06/15 06:42:24;;;;;;;6.68;4.05;;;19.10;75.40;;;;;;5115742;28;20039;-76
2023/06/15 06:44:49;;;;;;;6.53;4.10;;;19.20;75.20;;;;;;5115723;28;20061;-76
2023/06/15 06:47:15;;;;;;;5.72;3.97;;;19.30;74.70;;;;;;5115835;28;20043;-76
2023/06/15 06:49:41;;;;;;;6.25;3.78;;;19.40;74.50;;;;;;5115669;28;20500;-77
2023/06/15 06:52:07;;;;;;;6.75;4.32;;;19.50;74.20;;;;;;5132554;28;20043;-76
2023/06/15 06:54:32;;;;;;;8.63;3.70;;;19.60;73.70;;;;;;5098655;28;20043;-76
2023/06/15 06:56:59;;;;;;;9.45;3.75;;;19.70;72.90;;;;;;5115568;28;20051;-77
2023/06/15 06:59:25;;;;;;;6.00;3.67;;;19.70;72.40;;;;;;5132851;28;20047;-77
2023/06/15 07:01:51;;;;;;;10.70;3.72;;;19.80;71.90;;;;;;5132842;28;20487;-77
2023/06/15 07:04:17;;;;;;;6.68;3.90;;;19.90;71.00;;;;;;5115805;28;20467;-76
2023/06/15 07:06:42;;;;;;;7.57;3.72;;;20.00;70.60;;;;;;5132707;28;20045;-77
2023/06/15 07:09:08;;;;;;;4.40;3.78;;;20.00;70.40;;;;;;5115577;28;20039;-77
2023/06/15 07:11:34;;;;;;;6.35;4.00;;;20.20;69.60;;;;;;5115672;28;20043;-77
2023/06/15 07:14:03;;;;;;;5.22;3.67;;;20.30;69.50;;;;;;5099588;28;20535;-77
2023/06/15 07:16:30;;;;;;;7.15;3.72;;;20.40;69.40;;;;;;5095626;28;20040;-77
2023/06/15 07:18:56;;;;;;;7.43;3.95;;;20.40;69.40;;;;;;5115473;28;20051;-77
2023/06/15 07:21:22;;;;;;;3.75;3.17;;;20.50;69.30;;;;;;5115419;28;20039;-77
2023/06/15 07:23:48;;;;;;;5.30;3.95;;;20.60;68.70;;;;;;5098368;28;20052;-77
2023/06/15 07:26:14;;;;;;;5.47;3.42;;;20.70;68.30;;;;;;5064986;28;20035;-77
2023/06/15 07:28:39;;;;;;;5.95;3.30;;;20.80;68.30;;;;;;5115598;28;20038;-76
2023/06/15 07:31:05;;;;;;;6.18;3.33;;;20.90;67.30;;;;;;5081983;28;20047;-76
2023/06/15 07:33:31;;;;;;;4.88;3.08;;;21.00;66.70;;;;;;5098642;28;20087;-76
2023/06/15 07:35:57;;;;;;;3.85;3.08;;;21.00;66.20;;;;;;5098581;28;20043;-77
2023/06/15 07:38:22;;;;;;;4.35;2.78;;;21.20;65.70;;;;;;5115167;28;20122;-76
2023/06/15 07:40:48;;;;;;;4.78;3.40;;;21.20;65.20;;;;;;5098456;28;20047;-76
2023/06/15 07:43:14;;;;;;;5.95;3.30;;;21.40;64.50;;;;;;5115149;28;20035;-77
2023/06/15 07:45:41;;;;;;;5.78;3.40;;;21.40;63.40;;;;;;5098821;28;20031;-77
2023/06/15 07:48:07;;;;;;;6.15;3.42;;;21.50;63.30;;;;;;5115462;28;20043;-77
2023/06/15 07:50:33;;;;;;;7.18;4.40;;;21.70;63.10;;;;;;5115173;28;20081;-77
2023/06/15 07:52:59;;;;;;;6.15;3.30;;;21.80;62.30;;;;;;5115092;28;20075;-76
2023/06/15 07:55:25;;;;;;;5.05;2.97;;;21.90;62.20;;;;;;5115049;28;20067;-76
2023/06/15 07:57:50;;;;;;;6.78;3.30;;;22.00;61.90;;;;;;5115033;28;20058;-75
2023/06/15 08:00:17;;;;;;;8.55;2.85;;;22.10;61.40;;;;;;5097584;28;20527;-75
2023/06/15 08:02:43;;;;;;;4.85;3.30;;;22.20;60.70;;;;;;5115038;28;20476;-75
2023/06/15 08:05:09;;;;;;;2.90;2.58;;;22.30;60.30;;;;;;5122193;27;20032;-75
2023/06/15 08:07:35;;;;;;;7.40;3.08;;;22.40;60.50;;;;;;5126841;27;20031;-76
2023/06/15 08:10:00;;;;;;;4.28;3.03;;;22.50;60.20;;;;;;5135136;27;20035;-75
2023/06/15 08:12:26;;;;;;;5.07;3.28;;;22.60;59.00;;;;;;5118092;27;20038;-75
2023/06/15 08:14:52;;;;;;;4.45;2.63;;;22.70;58.50;;;;;;5117968;27;20043;-75
2023/06/15 08:17:18;;;;;;;3.88;2.90;;;22.80;58.30;;;;;;5117745;27;20058;-75
2023/06/15 08:19:44;;;;;;;5.22;2.90;;;22.90;57.50;;;;;;5135095;27;20043;-75
2023/06/15 08:22:09;;;;;;;4.57;2.63;;;22.90;56.70;;;;;;5083960;27;20118;-76
2023/06/15 08:24:35;;;;;;;4.60;2.45;;;23.00;56.30;;;;;;5118198;27;20047;-76
2023/06/15 08:27:01;;;;;;;7.20;3.00;;;23.10;56.10;;;;;;5114634;28;20036;-76
2023/06/15 08:29:26;;;;;;;3.42;2.80;;;23.20;55.50;;;;;;5129029;27;20506;-76
2023/06/15 08:31:52;;;;;;;4.70;2.83;;;23.30;54.10;;;;;;5135280;27;20035;-75
2023/06/15 08:34:18;;;;;;;4.35;2.70;;;23.40;53.90;;;;;;5135169;27;20039;-76
2023/06/15 08:36:44;;;;;;;5.03;2.63;;;23.50;53.80;;;;;;5135274;27;20070;-77
2023/06/15 08:39:09;;;;;;;3.58;2.85;;;23.60;53.10;;;;;;5134821;27;20453;-76
2023/06/15 08:41:39;;;;;;;7.13;2.80;;;23.70;53.10;;;;;;5100831;27;20039;-76
2023/06/15 08:44:05;;;;;;;5.85;2.90;;;23.90;52.30;;;;;;5134879;27;20118;-76
2023/06/15 08:46:31;;;;;;;9.13;2.75;;;23.90;52.00;;;;;;5117525;27;20035;-77
2023/06/15 08:48:58;;;;;;;6.95;2.85;;;24.00;52.20;;;;;;5134564;27;20491;-77
2023/06/15 08:51:25;;;;;;;9.07;3.42;;;24.00;51.30;;;;;;5134109;27;20051;-77
2023/06/15 08:53:54;;;;;;;9.63;3.13;;;24.10;51.30;;;;;;5117675;27;20082;-77
2023/06/15 08:56:20;;;;;;;6.05;2.47;;;24.20;51.40;;;;;;5134763;27;20039;-78
2023/06/15 08:58:49;;;;;;;3.65;2.38;;;24.40;51.60;;;;;;5117526;27;20047;-79
2023/06/15 09:01:22;;;;;;;6.55;2.88;;;24.50;51.60;;;;;;5117209;27;20506;-78
2023/06/15 09:03:55;;;;;;;11.25;2.90;;;24.60;50.20;;;;;;5117249;27;20517;-78
2023/06/15 09:06:22;;;;;;;4.72;2.85;;;24.80;50.50;;;;;;5134656;27;20057;-79
2023/06/15 09:08:48;;;;;;;11.25;2.70;;;24.90;50.30;;;;;;5100763;27;20043;-77
2023/06/15 09:11:15;;;;;;;3.33;2.53;;;24.90;50.10;;;;;;5134604;27;20544;-77
2023/06/15 09:13:41;;;;;;;4.40;2.72;;;25.00;49.90;;;;;;5117363;27;20081;-77
2023/06/15 09:16:08;;;;;;;7.75;3.17;;;25.10;49.30;;;;;;5117092;27;20074;-78
2023/06/15 09:18:45;;;;;;;4.57;2.90;;;25.20;49.10;;;;;;5134684;27;20100;-77
2023/06/15 09:21:13;;;;;;;5.38;3.10;;;25.30;48.30;;;;;;5134296;27;20035;-77
2023/06/15 09:23:43;;;;;;;5.78;2.65;;;25.30;48.20;;;;;;5117002;27;20086;-75
2023/06/15 09:26:09;;;;;;;4.00;2.80;;;25.40;46.90;;;;;;5117659;27;20039;-77
2023/06/15 09:28:44;;;;;;;6.88;2.47;;;25.40;45.60;;;;;;5134022;27;20035;-76
2023/06/15 09:31:10;;;;;;;5.47;3.00;;;25.40;45.00;;;;;;5133505;27;20043;-76
2023/06/15 09:33:36;;;;;;;6.88;2.75;;;25.50;45.40;;;;;;5116169;27;20042;-76
2023/06/15 09:36:06;;;;;;;6.25;2.67;;;25.60;45.60;;;;;;5116986;27;20039;-77
2023/06/15 09:38:33;;;;;;;5.60;2.88;;;25.80;44.90;;;;;;5133458;27;20051;-76
2023/06/15 09:41:06;;;;;;;5.22;2.88;;;25.80;43.80;;;;;;5116066;27;20424;-76
2023/06/15 09:43:36;;;;;;;6.47;2.80;;;25.90;42.30;;;;;;5133255;27;20131;-77
2023/06/15 09:46:09;;;;;;;3.20;2.70;;;26.00;43.10;;;;;;5133522;27;20046;-77
2023/06/15 09:48:37;;;;;;;8.30;3.20;;;26.00;41.90;;;;;;5133515;27;20080;-76
2023/06/15 09:51:03;;;;;;;2.58;2.05;;;26.20;41.60;;;;;;5116667;27;20069;-77
2023/06/15 09:53:31;;;;;;;4.00;2.78;;;26.20;41.90;;;;;;5134080;27;20075;-76
2023/06/15 09:55:58;;;;;;;4.55;3.15;;;26.30;42.20;;;;;;5123046;27;20089;-76
2023/06/15 09:58:24;;;;;;;5.55;2.92;;;26.40;40.70;;;;;;5112680;28;20046;-76
2023/06/15 10:00:51;;;;;;;6.32;3.28;;;26.40;40.80;;;;;;5112662;28;20039;-77
2023/06/15 10:03:22;;;;;;;5.32;2.55;;;26.50;41.60;;;;;;5113031;28;20495;-77
2023/06/15 10:05:54;;;;;;;4.63;3.10;;;26.70;42.10;;;;;;5113433;28;20036;-77
2023/06/15 10:08:24;;;;;;;2.75;2.45;;;26.80;41.40;;;;;;5112863;28;20531;-77
2023/06/15 10:10:51;;;;;;;6.38;2.78;;;26.90;41.50;;;;;;5112971;28;20088;-77
2023/06/15 10:13:26;;;;;;;6.68;2.70;;;27.10;41.60;;;;;;5112682;28;20047;-77
2023/06/15 10:15:55;;;;;;;7.60;2.88;;;27.20;40.20;;;;;;5112686;28;20044;-76
2023/06/15 10:18:22;;;;;;;4.60;3.42;;;27.10;40.00;;;;;;5095683;28;20529;-77
2023/06/15 10:20:53;;;;;;;4.25;3.03;;;27.20;40.60;;;;;;5095615;28;20043;-75
2023/06/15 10:23:27;;;;;;;4.25;2.65;;;27.30;39.50;;;;;;5112383;28;20052;-75
2023/06/15 10:25:55;;;;;;;3.03;2.72;;;27.30;39.50;;;;;;5112909;28;20391;-75
2023/06/15 10:28:27;;;;;;;3.92;2.67;;;27.40;39.30;;;;;;5095707;28;20364;-75
2023/06/15 10:31:07;;;;;;;7.60;3.13;;;27.40;38.90;;;;;;5112789;28;20246;-76
2023/06/15 10:33:56;;;;;;;4.00;2.33;;;27.50;38.80;;;;;;5095980;28;20395;-76
2023/06/15 10:36:30;;;;;;;5.22;3.30;;;27.60;38.00;;;;;;5129642;28;20050;-75
2023/06/15 10:39:08;;;;;;;4.30;2.70;;;27.60;36.90;;;;;;5115987;28;20047;-76
2023/06/15 10:41:35;;;;;;;3.20;2.78;;;27.60;37.20;;;;;;5115597;28;20047;-75
2023/06/15 10:44:03;;;;;;;4.45;2.97;;;27.80;38.00;;;;;;5131140;28;20122;-76
2023/06/15 10:46:30;;;;;;;4.68;2.70;;;27.90;37.90;;;;;;5131583;28;20499;-75
2023/06/15 10:49:02;;;;;;;3.53;2.47;;;28.00;38.20;;;;;;5115414;28;20075;-75
2023/06/15 10:51:29;;;;;;;4.05;2.65;;;28.00;36.70;;;;;;5134527;27;20179;-76
2023/06/15 10:53:56;;;;;;;3.50;2.53;;;28.10;37.40;;;;;;5102044;27;20491;-75
2023/06/15 10:56:22;;;;;;;2.85;2.55;;;28.20;36.60;;;;;;5137026;27;20043;-76
2023/06/15 10:59:07;;;;;;;5.32;2.97;;;28.30;36.70;;;;;;5136775;27;20123;-75
2023/06/15 11:01:33;;;;;;;4.03;2.88;;;28.40;37.10;;;;;;5136661;27;20072;-76
2023/06/15 11:04:30;;;;;;;3.75;2.90;;;28.30;36.90;;;;;;5119766;27;20031;-76
2023/06/15 11:06:57;;;;;;;6.53;3.05;;;28.30;36.10;;;;;;5119787;27;20065;-75
2023/06/15 11:09:28;;;;;;;5.95;2.70;;;28.30;35.90;;;;;;5102942;27;20043;-76
2023/06/15 11:11:55;;;;;;;4.63;3.20;;;28.50;36.60;;;;;;5137032;27;20433;-75
2023/06/15 11:14:22;;;;;;;6.65;3.03;;;28.60;36.60;;;;;;5119690;27;20043;-76
2023/06/15 11:17:03;;;;;;;4.80;2.83;;;28.80;36.00;;;;;;5136363;27;20183;-76
2023/06/15 11:19:29;;;;;;;4.40;2.55;;;28.90;34.60;;;;;;5136074;27;20046;-76
2023/06/15 11:22:06;;;;;;;3.03;2.63;;;29.10;36.40;;;;;;5136386;27;20035;-75
2023/06/15 11:24:37;;;;;;;4.35;3.30;;;29.30;36.30;;;;;;5136908;27;20394;-76
2023/06/15 11:27:12;;;;;;;4.65;2.83;;;29.40;35.20;;;;;;5136965;27;20062;-76
2023/06/15 11:29:41;;;;;;;4.72;3.03;;;29.40;35.50;;;;;;5119960;27;20076;-74
2023/06/15 11:32:09;;;;;;;4.68;3.05;;;29.50;35.40;;;;;;5136399;27;20043;-76
2023/06/15 11:34:36;;;;;;;7.30;2.78;;;29.60;36.10;;;;;;5136601;27;20047;-76
2023/06/15 11:37:03;;;;;;;5.70;3.13;;;29.80;34.60;;;;;;5119458;27;20070;-76
2023/06/15 11:39:30;;;;;;;4.70;2.83;;;29.70;33.40;;;;;;5119090;27;20125;-76
2023/06/15 11:41:58;;;;;;;5.38;2.95;;;29.80;34.20;;;;;;5135743;27;20035;-76
2023/06/15 11:44:26;;;;;;;4.80;3.20;;;29.90;33.30;;;;;;5136195;27;20039;-76
2023/06/15 11:46:59;;;;;;;4.15;2.63;;;30.00;34.40;;;;;;5136597;27;20371;-76
2023/06/15 11:49:32;;;;;;;6.13;2.75;;;30.00;34.70;;;;;;5136637;27;20116;-76
2023/06/15 11:51:57;;;;;;;6.00;3.05;;;29.90;34.30;;;;;;5135811;27;20383;-76
2023/06/15 11:54:27;;;;;;;5.25;3.10;;;29.50;33.10;;;;;;5136280;27;20042;-76
2023/06/15 11:56:55;;;;;;;5.07;2.78;;;29.50;33.60;;;;;;5102023;27;20080;-75
2023/06/15 11:59:21;;;;;;;5.05;2.55;;;29.60;34.50;;;;;;5119070;27;20043;-76
2023/06/15 12:01:49;;;;;;;4.93;2.88;;;29.80;34.70;;;;;;5118333;27;20046;-76
2023/06/15 12:04:15;;;;;;;3.55;2.65;;;30.20;34.50;;;;;;5119161;27;20047;-76
2023/06/15 12:06:48;;;;;;;5.18;2.70;;;30.40;34.20;;;;;;5135981;27;20034;-76
2023/06/15 12:09:16;;;;;;;3.28;2.33;;;30.60;33.00;;;;;;5135609;27;20035;-75
2023/06/15 12:11:43;;;;;;;4.60;2.83;;;30.80;33.10;;;;;;5116425;27;20097;-76
2023/06/15 12:14:11;;;;;;;3.92;3.10;;;30.80;31.20;;;;;;5118237;27;20039;-76
2023/06/15 12:16:37;;;;;;;7.85;3.22;;;30.80;31.80;;;;;;5118780;27;20043;-76
2023/06/15 12:19:07;;;;;;;3.50;2.80;;;31.00;31.60;;;;;;5118589;27;20046;-76
2023/06/15 12:21:37;;;;;;;5.45;2.70;;;31.00;31.90;;;;;;5135712;27;20027;-76
2023/06/15 12:24:22;;;;;;;4.45;2.67;;;31.20;31.30;;;;;;5135426;27;20047;-75
2023/06/15 12:26:53;;;;;;;6.13;2.83;;;31.30;32.40;;;;;;5101538;27;20050;-76
2023/06/15 12:29:21;;;;;;;5.35;2.83;;;31.40;30.40;;;;;;5116962;27;20050;-76
2023/06/15 12:31:52;;;;;;;4.07;2.60;;;31.30;30.90;;;;;;5135440;27;20039;-76
2023/06/15 12:34:24;;;;;;;3.78;2.60;;;31.30;31.30;;;;;;5135612;27;20054;-76
2023/06/15 12:36:51;;;;;;;5.65;2.67;;;31.40;31.80;;;;;;5118351;27;20071;-77
2023/06/15 12:39:18;;;;;;;4.68;2.47;;;31.30;31.80;;;;;;5118060;27;20135;-76
2023/06/15 12:41:44;;;;;;;4.78;2.50;;;31.50;32.40;;;;;;5134972;27;20035;-76
2023/06/15 12:44:11;;;;;;;4.88;2.65;;;31.50;31.40;;;;;;5133639;27;20039;-76
2023/06/15 12:46:39;;;;;;;6.38;2.67;;;31.60;32.00;;;;;;5134848;27;20076;-77